Time;durP1;ratioP1;P1;durP2;ratioP2;P2;SDS_P1;SDS_P2;PMS_P1;PMS_P2;Temp;Humidity;BMP_temperature;BMP_pressure;BME280_temperature;BME280_humidity;BME280_pressure;Samples;Min_cycle;Max_cycle;Signal;HPM_P1;HPM_P2
2021/08/02 00:00:17;;;;;;;2.58;0.30;;;14.80;99.60;;;;;;3484008;41;20044;-80
2021/08/02 00:02:55;;;;;;;5.93;0.40;;;14.80;99.60;;;;;;3494006;41;20044;-81
2021/08/02 00:05:21;;;;;;;3.22;0.55;;;14.80;99.70;;;;;;3498958;41;20074;-81
2021/08/02 00:08:02;;;;;;;5.68;0.65;;;14.80;99.70;;;;;;3490407;41;20313;-81
2021/08/02 00:10:33;;;;;;;3.72;0.30;;;14.80;99.60;;;;;;3490871;41;20044;-83
2021/08/02 00:13:05;;;;;;;5.53;0.50;;;14.80;99.80;;;;;;3499077;41;20081;-80
2021/08/02 00:15:32;;;;;;;2.65;0.73;;;14.80;99.70;;;;;;3490321;41;20044;-80
2021/08/02 00:17:58;;;;;;;4.30;0.40;;;14.80;99.80;;;;;;3500423;41;20040;-79
2021/08/02 00:20:32;;;;;;;7.43;0.77;;;14.80;99.90;;;;;;3490179;41;20048;-81
2021/08/02 00:23:00;;;;;;;2.17;0.30;;;14.80;99.90;;;;;;3499385;41;20047;-80
2021/08/02 00:25:27;;;;;;;6.60;0.80;;;14.80;99.80;;;;;;3499195;41;20070;-80
2021/08/02 00:27:54;;;;;;;4.55;0.50;;;14.80;99.90;;;;;;3498971;41;20060;-79
2021/08/02 00:30:22;;;;;;;2.00;0.70;;;14.80;99.90;;;;;;3490259;41;20055;-84
2021/08/02 00:32:47;;;;;;;2.17;0.88;;;14.80;99.90;;;;;;3498790;41;20040;-82
2021/08/02 00:35:13;;;;;;;3.00;0.65;;;14.80;99.90;;;;;;3498590;41;20044;-80
2021/08/02 00:37:52;;;;;;;4.28;0.52;;;14.80;99.90;;;;;;3498840;41;20050;-81
2021/08/02 00:41:04;;;;;;;4.90;1.00;;;14.80;99.90;;;;;;3489923;41;20064;-81
2021/08/02 00:44:00;;;;;;;3.58;0.32;;;14.80;99.90;;;;;;3498838;41;20042;-80
2021/08/02 00:46:33;;;;;;;4.57;0.60;;;14.80;99.90;;;;;;3499046;41;20047;-79
2021/08/02 00:49:05;;;;;;;3.50;0.60;;;14.80;99.90;;;;;;3498961;41;20064;-82
2021/08/02 00:51:38;;;;;;;5.63;0.65;;;14.80;99.90;;;;;;3499046;41;20040;-80
2021/08/02 00:54:06;;;;;;;3.53;0.30;;;14.80;99.90;;;;;;3499040;41;20347;-81
2021/08/02 00:56:34;;;;;;;4.30;0.47;;;14.80;99.90;;;;;;3489671;41;20055;-79
2021/08/02 00:59:05;;;;;;;5.85;0.30;;;14.80;99.90;;;;;;3498728;41;20043;-80
2021/08/02 01:01:36;;;;;;;2.03;0.70;;;14.80;99.90;;;;;;3498572;41;20054;-80
2021/08/02 01:04:03;;;;;;;2.35;0.30;;;14.70;99.90;;;;;;3498724;41;20040;-81
2021/08/02 01:06:31;;;;;;;6.80;1.02;;;14.70;99.90;;;;;;3498888;41;20112;-81
2021/08/02 01:09:02;;;;;;;3.08;0.43;;;14.70;99.90;;;;;;3481748;41;20044;-83
2021/08/02 01:11:28;;;;;;;3.30;0.50;;;14.70;99.90;;;;;;3498840;41;20036;-83
2021/08/02 01:13:56;;;;;;;3.75;0.50;;;14.70;99.90;;;;;;3498557;41;20049;-79
2021/08/02 01:16:22;;;;;;;3.17;0.30;;;14.70;99.90;;;;;;3489891;41;20178;-83
2021/08/02 01:18:48;;;;;;;3.38;0.30;;;14.70;99.90;;;;;;3504687;41;20076;-82
2021/08/02 01:21:19;;;;;;;4.25;0.40;;;14.70;99.90;;;;;;3505341;41;20053;-81
2021/08/02 01:23:46;;;;;;;6.78;0.25;;;14.60;99.90;;;;;;3489448;41;20101;-81
2021/08/02 01:26:44;;;;;;;5.10;0.80;;;14.60;99.90;;;;;;3498718;41;20236;-81
2021/08/02 01:29:48;;;;;;;3.35;0.40;;;14.70;99.90;;;;;;3489877;41;20067;-80
2021/08/02 01:32:15;;;;;;;7.38;1.52;;;14.70;99.90;;;;;;3498621;41;20040;-82
2021/08/02 01:34:42;;;;;;;4.55;0.70;;;14.60;99.90;;;;;;3498507;41;20056;-80
2021/08/02 01:37:07;;;;;;;2.88;0.50;;;14.70;99.90;;;;;;3489877;41;20044;-81
2021/08/02 01:39:34;;;;;;;6.80;0.80;;;14.60;99.90;;;;;;3498221;41;20055;-82
2021/08/02 01:42:03;;;;;;;5.20;0.95;;;14.70;99.90;;;;;;3499061;41;20048;-81
2021/08/02 01:44:31;;;;;;;5.88;1.63;;;14.60;99.90;;;;;;3482015;41;20048;-81
2021/08/02 01:47:22;;;;;;;2.70;0.70;;;14.60;99.90;;;;;;3489857;41;20135;-81
2021/08/02 01:50:06;;;;;;;5.88;0.85;;;14.60;99.90;;;;;;3498664;41;20339;-78
2021/08/02 01:52:45;;;;;;;6.95;0.75;;;14.60;99.90;;;;;;3498238;41;20063;-80
2021/08/02 01:55:21;;;;;;;3.63;1.08;;;14.60;99.90;;;;;;3489891;41;20048;-80
2021/08/02 01:57:47;;;;;;;3.88;1.20;;;14.50;99.90;;;;;;3490075;41;20352;-80
2021/08/02 02:00:14;;;;;;;3.40;0.90;;;14.50;99.90;;;;;;3498470;41;20108;-81
2021/08/02 02:02:45;;;;;;;4.35;0.98;;;14.50;99.90;;;;;;3489820;41;20044;-80
2021/08/02 02:05:17;;;;;;;6.50;0.60;;;14.50;99.90;;;;;;3489602;41;20045;-81
2021/08/02 02:07:51;;;;;;;8.68;1.35;;;14.50;99.90;;;;;;3498413;41;20088;-82
2021/08/02 02:10:21;;;;;;;2.38;0.40;;;14.50;99.90;;;;;;3489487;41;20354;-82
2021/08/02 02:12:49;;;;;;;9.13;0.68;;;14.50;99.90;;;;;;3489127;41;20056;-81
2021/08/02 02:15:15;;;;;;;2.72;0.40;;;14.40;99.90;;;;;;3498152;41;20081;-82
2021/08/02 02:17:43;;;;;;;5.90;0.50;;;14.40;99.90;;;;;;3499287;41;20044;-83
2021/08/02 02:20:10;;;;;;;3.05;0.52;;;14.40;99.90;;;;;;3508315;41;20360;-83
2021/08/02 02:22:37;;;;;;;4.50;0.45;;;14.40;99.90;;;;;;3507235;41;20518;-82
2021/08/02 02:25:06;;;;;;;3.33;0.63;;;14.40;99.90;;;;;;3506328;41;20040;-80
2021/08/02 02:27:34;;;;;;;3.92;0.73;;;14.40;99.90;;;;;;3499179;41;20358;-86
2021/08/02 02:30:06;;;;;;;7.05;0.60;;;14.40;99.90;;;;;;3498713;41;20244;-82
2021/08/02 02:32:34;;;;;;;4.97;1.40;;;14.40;99.90;;;;;;3498092;41;20051;-82
2021/08/02 02:35:02;;;;;;;2.67;0.50;;;14.40;99.90;;;;;;3489415;41;20076;-81
2021/08/02 02:37:29;;;;;;;5.43;1.20;;;14.40;99.90;;;;;;3492237;41;20053;-82
2021/08/02 02:39:55;;;;;;;5.93;0.85;;;14.40;99.90;;;;;;3488407;41;20044;-83
2021/08/02 02:42:23;;;;;;;4.05;0.85;;;14.40;99.90;;;;;;3493025;41;20476;-80
2021/08/02 02:44:50;;;;;;;4.05;0.80;;;14.40;99.90;;;;;;3498216;41;20048;-81
2021/08/02 02:47:16;;;;;;;4.90;0.65;;;14.40;99.90;;;;;;3490798;41;20048;-81
2021/08/02 02:49:43;;;;;;;5.43;0.80;;;14.40;99.90;;;;;;3489292;41;20394;-81
2021/08/02 02:52:10;;;;;;;2.55;0.70;;;14.40;99.90;;;;;;3498567;41;20048;-80
2021/08/02 02:54:38;;;;;;;5.18;0.93;;;14.30;99.90;;;;;;3498472;41;20044;-83
2021/08/02 02:57:05;;;;;;;2.72;0.68;;;14.40;99.90;;;;;;3498400;41;20040;-79
2021/08/02 02:59:31;;;;;;;6.47;1.05;;;14.30;99.90;;;;;;3496122;41;20037;-84
2021/08/02 03:01:59;;;;;;;4.40;0.63;;;14.30;99.90;;;;;;3498381;41;20063;-82
2021/08/02 03:04:30;;;;;;;5.03;0.80;;;14.30;99.90;;;;;;3489168;41;20244;-82
2021/08/02 03:06:58;;;;;;;3.47;0.65;;;14.30;99.90;;;;;;3489376;41;20045;-82
2021/08/02 03:09:31;;;;;;;2.88;0.68;;;14.30;99.90;;;;;;3489837;41;20059;-81
2021/08/02 03:11:57;;;;;;;4.90;0.90;;;14.30;99.90;;;;;;3498134;41;20040;-81
2021/08/02 03:14:23;;;;;;;2.05;0.50;;;14.20;99.90;;;;;;3498193;41;20144;-80
2021/08/02 03:16:49;;;;;;;3.50;0.68;;;14.20;99.90;;;;;;3489253;41;20040;-81
2021/08/02 03:19:15;;;;;;;2.67;0.70;;;14.10;99.90;;;;;;3499464;41;20057;-81
2021/08/02 03:21:41;;;;;;;3.38;0.40;;;14.10;99.90;;;;;;3498052;41;20053;-82
2021/08/02 03:24:27;;;;;;;4.88;0.30;;;14.10;99.90;;;;;;3498155;41;20032;-79
2021/08/02 03:27:01;;;;;;;3.80;0.60;;;14.10;99.90;;;;;;3498466;41;20075;-80
2021/08/02 03:29:42;;;;;;;8.13;0.82;;;14.10;99.90;;;;;;3497952;41;20152;-80
2021/08/02 03:32:16;;;;;;;4.20;0.60;;;14.10;99.90;;;;;;3489662;41;20049;-84
2021/08/02 03:34:46;;;;;;;2.47;0.40;;;14.10;99.90;;;;;;3499668;41;20047;-77
2021/08/02 03:37:16;;;;;;;6.95;0.70;;;14.10;99.90;;;;;;3490605;41;20056;-81
2021/08/02 03:39:44;;;;;;;3.05;0.57;;;14.10;99.90;;;;;;3490294;41;20052;-80
2021/08/02 03:42:12;;;;;;;7.18;0.60;;;14.10;99.90;;;;;;3490672;41;20053;-80
2021/08/02 03:44:40;;;;;;;7.40;0.50;;;14.10;99.90;;;;;;3499154;41;20058;-79
2021/08/02 03:47:06;;;;;;;3.08;0.40;;;14.10;99.90;;;;;;3499261;41;20048;-80
2021/08/02 03:49:40;;;;;;;4.38;0.40;;;14.10;99.90;;;;;;3499323;41;20368;-79
2021/08/02 03:52:06;;;;;;;3.70;1.33;;;14.10;99.90;;;;;;3499178;41;20086;-78
2021/08/02 03:54:32;;;;;;;8.88;0.70;;;14.10;99.90;;;;;;3498514;41;20078;-78
2021/08/02 03:57:00;;;;;;;4.88;0.77;;;14.10;99.90;;;;;;3498882;41;20124;-77
2021/08/02 03:59:26;;;;;;;4.75;0.50;;;14.10;99.90;;;;;;3498694;41;20107;-77
2021/08/02 04:01:52;;;;;;;3.05;0.73;;;14.10;99.90;;;;;;3498921;41;20048;-77
2021/08/02 04:04:18;;;;;;;5.32;0.50;;;14.00;99.90;;;;;;3498740;41;20052;-76
2021/08/02 04:06:44;;;;;;;3.90;0.73;;;14.00;99.90;;;;;;3490239;41;20062;-76
2021/08/02 04:09:12;;;;;;;4.22;0.47;;;14.00;99.90;;;;;;3499053;41;20048;-78
2021/08/02 04:11:40;;;;;;;5.25;1.00;;;14.00;99.90;;;;;;3498901;41;20044;-77
2021/08/02 04:14:07;;;;;;;1.38;0.45;;;14.00;99.90;;;;;;3498917;41;20132;-77
2021/08/02 04:16:33;;;;;;;2.13;0.50;;;14.00;99.90;;;;;;3498622;41;20070;-76
2021/08/02 04:18:59;;;;;;;2.10;0.32;;;14.00;99.90;;;;;;3500864;41;20132;-77
2021/08/02 04:21:25;;;;;;;9.90;0.85;;;14.00;99.90;;;;;;3489971;41;20331;-76
2021/08/02 04:23:51;;;;;;;7.88;0.95;;;14.00;99.90;;;;;;3498675;41;20658;-76
2021/08/02 04:26:17;;;;;;;3.00;0.45;;;14.00;99.90;;;;;;3500117;41;20072;-75
2021/08/02 04:28:44;;;;;;;3.35;0.70;;;14.00;99.90;;;;;;3495561;41;20336;-76
2021/08/02 04:31:11;;;;;;;5.50;0.70;;;14.00;99.90;;;;;;3489415;41;20045;-77
2021/08/02 04:33:38;;;;;;;3.78;0.90;;;14.00;99.90;;;;;;3489067;41;20045;-76
2021/08/02 04:36:05;;;;;;;6.18;0.55;;;14.00;99.90;;;;;;3498992;41;20471;-76
2021/08/02 04:38:31;;;;;;;4.40;0.60;;;14.00;99.90;;;;;;3498467;41;20056;-76
2021/08/02 04:40:58;;;;;;;3.08;0.90;;;13.90;99.90;;;;;;3498691;41;20055;-75
2021/08/02 04:43:25;;;;;;;6.78;0.70;;;13.90;99.90;;;;;;3498088;41;20052;-76
2021/08/02 04:45:51;;;;;;;2.92;0.65;;;13.90;99.90;;;;;;3498341;41;20054;-74
2021/08/02 04:48:17;;;;;;;4.55;0.90;;;13.90;99.90;;;;;;3498588;41;20348;-75
2021/08/02 04:50:45;;;;;;;5.93;0.60;;;13.90;99.90;;;;;;3498680;41;20061;-75
2021/08/02 04:53:11;;;;;;;3.70;2.05;;;13.80;99.90;;;;;;3498645;41;20599;-75
2021/08/02 04:55:37;;;;;;;4.45;1.30;;;13.80;99.90;;;;;;3498386;41;20103;-74
2021/08/02 04:58:04;;;;;;;2.95;0.50;;;13.80;99.90;;;;;;3489793;41;20049;-75
2021/08/02 05:00:30;;;;;;;3.35;0.43;;;13.80;99.90;;;;;;3494785;41;20047;-75
2021/08/02 05:02:56;;;;;;;5.25;1.67;;;13.70;99.90;;;;;;3492242;41;20108;-74
2021/08/02 05:05:22;;;;;;;6.68;1.52;;;13.70;99.90;;;;;;3491279;41;20104;-74
2021/08/02 05:07:48;;;;;;;5.00;0.50;;;13.70;99.90;;;;;;3489640;41;20049;-75
2021/08/02 05:10:14;;;;;;;4.65;0.80;;;13.70;99.90;;;;;;3491296;41;20683;-74
2021/08/02 05:12:41;;;;;;;7.38;0.82;;;13.60;99.90;;;;;;3491615;41;20041;-75
2021/08/02 05:15:09;;;;;;;5.22;0.45;;;13.60;99.90;;;;;;3493046;41;20317;-74
2021/08/02 05:17:36;;;;;;;3.15;0.50;;;13.60;99.90;;;;;;3491518;41;20049;-74
2021/08/02 05:20:03;;;;;;;8.45;0.73;;;13.60;99.90;;;;;;3491206;41;20101;-74
2021/08/02 05:22:33;;;;;;;3.63;0.45;;;13.50;99.90;;;;;;3491404;41;20056;-74
2021/08/02 05:24:59;;;;;;;3.45;0.82;;;13.50;99.90;;;;;;3492079;41;20048;-73
2021/08/02 05:27:25;;;;;;;5.28;0.85;;;13.50;99.90;;;;;;3488697;41;20140;-74
2021/08/02 05:29:51;;;;;;;4.53;0.73;;;13.50;99.90;;;;;;3495822;41;20229;-76
2021/08/02 05:32:17;;;;;;;3.22;0.68;;;13.50;99.90;;;;;;3498197;41;20107;-75
2021/08/02 05:34:44;;;;;;;5.03;0.50;;;13.50;99.90;;;;;;3497987;41;20387;-75
2021/08/02 05:37:12;;;;;;;4.35;0.50;;;13.50;99.90;;;;;;3495485;41;20070;-75
2021/08/02 05:39:38;;;;;;;3.10;0.60;;;13.50;99.90;;;;;;3497663;41;20061;-75
2021/08/02 05:42:05;;;;;;;6.28;0.90;;;13.50;99.90;;;;;;3497942;41;20391;-76
2021/08/02 05:44:32;;;;;;;7.05;0.88;;;13.50;99.90;;;;;;3488655;41;20060;-75
2021/08/02 05:46:59;;;;;;;2.97;0.77;;;13.50;99.90;;;;;;3497971;41;20048;-75
2021/08/02 05:49:25;;;;;;;5.18;0.65;;;13.50;99.90;;;;;;3493966;41;20070;-76
2021/08/02 05:51:51;;;;;;;3.17;0.60;;;13.60;99.90;;;;;;3497786;41;20124;-75
2021/08/02 05:54:17;;;;;;;3.53;0.40;;;13.60;99.90;;;;;;3495026;41;20045;-76
2021/08/02 05:56:43;;;;;;;3.42;0.95;;;13.70;99.90;;;;;;3494568;41;20044;-75
2021/08/02 05:59:09;;;;;;;3.67;1.10;;;13.80;99.90;;;;;;3497804;41;20048;-74
2021/08/02 06:01:35;;;;;;;4.93;0.40;;;13.90;99.90;;;;;;3488692;41;20055;-74
2021/08/02 06:04:01;;;;;;;4.18;0.30;;;14.00;99.90;;;;;;3488362;41;20045;-75
2021/08/02 06:06:27;;;;;;;3.92;0.55;;;14.00;99.90;;;;;;3497688;41;20040;-76
2021/08/02 06:08:53;;;;;;;6.07;0.50;;;14.10;99.90;;;;;;3497588;41;20328;-74
2021/08/02 06:11:19;;;;;;;3.92;0.60;;;14.10;99.90;;;;;;3497733;41;20041;-75
2021/08/02 06:13:47;;;;;;;1.80;0.30;;;14.10;99.90;;;;;;3497848;41;20087;-74
2021/08/02 06:16:14;;;;;;;2.30;0.40;;;14.20;99.90;;;;;;3496353;41;20328;-75
2021/08/02 06:18:40;;;;;;;3.22;0.50;;;14.20;99.90;;;;;;3500338;41;20072;-74
2021/08/02 06:21:07;;;;;;;1.60;0.40;;;14.20;99.90;;;;;;3497830;41;20048;-76
2021/08/02 06:23:35;;;;;;;6.40;0.50;;;14.30;99.90;;;;;;3497406;41;20040;-75
2021/08/02 06:26:01;;;;;;;2.28;0.52;;;14.30;99.90;;;;;;3489723;41;20379;-75
2021/08/02 06:28:27;;;;;;;3.40;0.47;;;14.40;99.90;;;;;;3497940;41;20100;-75
2021/08/02 06:30:53;;;;;;;6.20;0.52;;;14.40;99.90;;;;;;3488927;41;20330;-75
2021/08/02 06:33:20;;;;;;;4.82;0.73;;;14.50;99.90;;;;;;3488926;41;20055;-76
2021/08/02 06:35:46;;;;;;;5.50;0.57;;;14.50;99.90;;;;;;3497665;41;20063;-74
2021/08/02 06:38:12;;;;;;;6.78;1.00;;;14.60;99.90;;;;;;3497574;41;20044;-75
2021/08/02 06:40:38;;;;;;;4.10;0.55;;;14.60;99.90;;;;;;3497267;41;20041;-75
2021/08/02 06:43:03;;;;;;;4.22;0.45;;;14.70;99.90;;;;;;3497679;41;20135;-74
2021/08/02 06:45:29;;;;;;;2.80;0.70;;;14.70;99.90;;;;;;3497327;41;20052;-76
2021/08/02 06:47:56;;;;;;;9.02;0.90;;;14.80;99.90;;;;;;3480867;41;20124;-77
2021/08/02 06:50:24;;;;;;;6.05;1.13;;;14.80;99.90;;;;;;3497537;41;20048;-79
2021/08/02 06:52:51;;;;;;;5.82;0.80;;;14.90;99.90;;;;;;3497631;41;20048;-77
2021/08/02 06:55:17;;;;;;;5.10;0.95;;;14.90;99.90;;;;;;3488802;41;20047;-75
2021/08/02 06:57:43;;;;;;;4.43;0.38;;;15.00;99.90;;;;;;3497343;41;20048;-75
2021/08/02 07:00:09;;;;;;;3.97;1.20;;;15.00;99.90;;;;;;3497534;41;20088;-77
2021/08/02 07:02:35;;;;;;;4.15;0.57;;;15.00;99.90;;;;;;3497390;41;20056;-76
2021/08/02 07:05:01;;;;;;;3.30;0.47;;;15.10;99.90;;;;;;3488855;41;20454;-75
2021/08/02 07:07:26;;;;;;;3.63;0.95;;;15.10;99.90;;;;;;3496957;41;20044;-75
2021/08/02 07:09:52;;;;;;;4.07;0.75;;;15.10;99.90;;;;;;3488741;41;20136;-77
2021/08/02 07:12:18;;;;;;;4.18;0.43;;;15.20;99.90;;;;;;3497539;41;20048;-76
2021/08/02 07:14:44;;;;;;;5.25;0.60;;;15.30;99.90;;;;;;3488377;41;20048;-77
2021/08/02 07:17:10;;;;;;;5.43;0.47;;;15.50;99.90;;;;;;3480893;41;20068;-75
2021/08/02 07:19:35;;;;;;;4.97;0.68;;;15.60;99.90;;;;;;3499734;41;20076;-77
2021/08/02 07:22:01;;;;;;;2.58;0.40;;;15.80;99.90;;;;;;3497900;41;20136;-79
2021/08/02 07:24:27;;;;;;;3.95;0.70;;;16.00;99.90;;;;;;3488627;41;20044;-78
2021/08/02 07:26:53;;;;;;;3.90;0.38;;;16.10;99.90;;;;;;3488433;41;20143;-78
2021/08/02 07:29:20;;;;;;;1.92;0.43;;;16.10;99.90;;;;;;3497758;41;20539;-84
2021/08/02 07:31:45;;;;;;;5.35;0.40;;;16.20;99.90;;;;;;3484961;41;20342;-79
2021/08/02 07:34:11;;;;;;;2.20;0.57;;;16.20;99.90;;;;;;3488953;41;20051;-79
2021/08/02 07:36:38;;;;;;;4.10;0.40;;;16.30;99.90;;;;;;3497236;41;20419;-77
2021/08/02 07:39:04;;;;;;;3.42;0.60;;;16.30;99.90;;;;;;3497484;41;20049;-78
2021/08/02 07:41:30;;;;;;;3.30;0.30;;;16.30;99.90;;;;;;3497616;41;20627;-77
2021/08/02 07:43:57;;;;;;;2.50;0.20;;;16.30;99.90;;;;;;3494552;41;20044;-77
2021/08/02 07:46:22;;;;;;;4.32;0.82;;;16.40;99.90;;;;;;3497618;41;20050;-78
2021/08/02 07:48:52;;;;;;;3.25;0.35;;;16.60;99.90;;;;;;3497266;41;20080;-78
2021/08/02 07:51:20;;;;;;;2.65;0.20;;;16.80;99.90;;;;;;3497483;41;20316;-79
2021/08/02 07:53:46;;;;;;;2.70;0.20;;;16.90;99.90;;;;;;3497226;41;20056;-78
2021/08/02 07:56:13;;;;;;;4.35;0.80;;;17.00;99.90;;;;;;3497401;41;20056;-76
2021/08/02 07:58:38;;;;;;;3.03;0.20;;;17.10;99.90;;;;;;3497040;41;20040;-79
2021/08/02 08:01:04;;;;;;;1.70;0.40;;;17.20;99.90;;;;;;3496493;41;20046;-74
2021/08/02 08:03:30;;;;;;;3.28;0.68;;;17.30;99.70;;;;;;3497595;41;20036;-80
2021/08/02 08:05:56;;;;;;;0.95;0.20;;;17.40;99.80;;;;;;3493525;41;20136;-81
2021/08/02 08:08:22;;;;;;;4.13;0.22;;;17.50;99.40;;;;;;3488581;41;20070;-81
2021/08/02 08:10:48;;;;;;;1.67;0.68;;;17.60;99.50;;;;;;3496759;41;20127;-78
2021/08/02 08:13:15;;;;;;;4.78;0.47;;;17.70;99.40;;;;;;3497227;41;20080;-78
2021/08/02 08:15:41;;;;;;;6.28;0.20;;;17.80;99.70;;;;;;3488386;41;20076;-78
2021/08/02 08:18:06;;;;;;;2.85;0.50;;;17.90;99.00;;;;;;3499324;41;20044;-80
2021/08/02 08:20:32;;;;;;;6.53;0.35;;;17.90;99.10;;;;;;3498155;41;20092;-77
2021/08/02 08:22:58;;;;;;;3.08;0.30;;;18.00;99.10;;;;;;3497436;41;20080;-77
2021/08/02 08:25:24;;;;;;;3.63;0.30;;;18.00;98.80;;;;;;3489486;41;20047;-79
2021/08/02 08:27:51;;;;;;;4.05;0.35;;;18.00;98.60;;;;;;3493933;41;20047;-78
2021/08/02 08:30:19;;;;;;;1.63;0.20;;;18.00;99.20;;;;;;3489778;41;20059;-77
2021/08/02 08:32:44;;;;;;;2.67;0.43;;;18.10;98.90;;;;;;3498037;41;20060;-78
2021/08/02 08:35:11;;;;;;;2.00;0.40;;;18.10;98.90;;;;;;3489758;41;20063;-77
2021/08/02 08:37:39;;;;;;;2.67;0.40;;;18.00;98.70;;;;;;3498386;41;20077;-78
2021/08/02 08:40:07;;;;;;;4.22;0.55;;;18.00;98.80;;;;;;3498310;41;20555;-80
2021/08/02 08:42:33;;;;;;;3.83;0.30;;;17.90;98.90;;;;;;3498489;41;20036;-79
2021/08/02 08:44:59;;;;;;;2.30;0.20;;;17.80;98.70;;;;;;3489581;41;20040;-81
2021/08/02 08:47:25;;;;;;;2.55;0.15;;;17.80;98.60;;;;;;3497783;41;20047;-80
2021/08/02 08:49:51;;;;;;;1.45;0.20;;;17.70;98.70;;;;;;3498668;41;20268;-80
2021/08/02 08:52:17;;;;;;;1.83;0.30;;;17.80;98.60;;;;;;3498932;41;20105;-79
2021/08/02 08:54:43;;;;;;;2.38;0.17;;;17.80;98.30;;;;;;3498573;41;20108;-77
2021/08/02 08:57:13;;;;;;;3.92;0.10;;;17.80;97.80;;;;;;3489762;41;20060;-79
2021/08/02 08:59:49;;;;;;;4.38;0.30;;;17.90;97.60;;;;;;3498252;41;20108;-82
2021/08/02 09:02:16;;;;;;;1.15;0.20;;;17.90;97.30;;;;;;3498609;41;20085;-79
2021/08/02 09:04:52;;;;;;;4.85;0.35;;;18.00;98.10;;;;;;3498222;41;20103;-79
2021/08/02 09:07:18;;;;;;;3.35;0.45;;;18.10;97.40;;;;;;3489522;41;20056;-78
2021/08/02 09:09:44;;;;;;;1.85;0.20;;;18.10;97.90;;;;;;3498014;41;20040;-78
2021/08/02 09:12:16;;;;;;;1.70;0.30;;;18.20;97.50;;;;;;3489742;41;20041;-78
2021/08/02 09:14:56;;;;;;;2.08;0.40;;;18.30;97.30;;;;;;3497867;41;20307;-79
2021/08/02 09:17:34;;;;;;;1.25;0.20;;;18.40;95.40;;;;;;3498609;41;20044;-79
2021/08/02 09:20:21;;;;;;;2.63;0.95;;;18.50;96.40;;;;;;3499098;41;20044;-80
2021/08/02 09:22:48;;;;;;;3.13;0.73;;;18.70;96.40;;;;;;3498369;41;20334;-78
2021/08/02 09:25:22;;;;;;;2.35;0.10;;;18.90;97.30;;;;;;3499309;41;20044;-80
2021/08/02 09:27:50;;;;;;;4.78;0.43;;;19.00;97.00;;;;;;3498319;41;20045;-80
2021/08/02 09:30:28;;;;;;;2.20;0.77;;;19.00;96.80;;;;;;3498161;41;20060;-80
2021/08/02 09:33:04;;;;;;;1.52;0.20;;;19.00;96.40;;;;;;3498285;41;20048;-80
2021/08/02 09:35:32;;;;;;;1.55;0.20;;;19.00;95.80;;;;;;3489568;41;20558;-79
2021/08/02 09:38:04;;;;;;;5.88;0.65;;;18.90;96.70;;;;;;3498668;41;20045;-81
2021/08/02 09:40:50;;;;;;;4.55;0.30;;;18.90;96.90;;;;;;3498315;41;20044;-79
2021/08/02 09:43:24;;;;;;;2.22;0.20;;;18.90;93.80;;;;;;3498491;41;20063;-79
2021/08/02 09:45:53;;;;;;;1.55;0.10;;;18.80;95.70;;;;;;3489263;41;20040;-80
2021/08/02 09:48:20;;;;;;;0.50;0.10;;;18.60;96.30;;;;;;3498606;41;20040;-80
2021/08/02 09:50:49;;;;;;;1.38;0.40;;;18.40;96.70;;;;;;3498140;41;20490;-80
2021/08/02 09:53:20;;;;;;;0.73;0.13;;;18.30;96.70;;;;;;3498517;41;20239;-81
2021/08/02 09:55:47;;;;;;;0.82;0.10;;;18.20;96.90;;;;;;3497911;41;20041;-79
2021/08/02 09:58:18;;;;;;;2.25;0.20;;;18.20;97.30;;;;;;3498527;41;20362;-79
2021/08/02 10:00:46;;;;;;;1.67;0.10;;;18.20;97.40;;;;;;3497882;41;20084;-79
2021/08/02 10:03:14;;;;;;;2.25;0.57;;;18.20;97.10;;;;;;3498281;41;20076;-80
2021/08/02 10:05:40;;;;;;;1.75;0.20;;;18.20;97.20;;;;;;3498058;41;20044;-80
2021/08/02 10:08:08;;;;;;;2.15;0.20;;;18.30;97.50;;;;;;3488867;41;20252;-80
2021/08/02 10:10:38;;;;;;;0.88;0.20;;;18.30;97.10;;;;;;3484282;41;20080;-80
2021/08/02 10:13:05;;;;;;;2.38;0.20;;;18.50;97.30;;;;;;3495482;41;20052;-79
2021/08/02 10:15:31;;;;;;;3.30;0.20;;;18.60;97.60;;;;;;3494468;41;20049;-81
2021/08/02 10:18:03;;;;;;;2.00;0.40;;;18.80;97.70;;;;;;3485472;41;20041;-81
2021/08/02 10:20:31;;;;;;;0.93;0.10;;;19.00;97.70;;;;;;3492528;41;20547;-80
2021/08/02 10:22:59;;;;;;;0.93;0.40;;;19.20;97.20;;;;;;3494757;41;20050;-79
2021/08/02 10:25:38;;;;;;;3.13;0.20;;;19.40;97.00;;;;;;3492992;41;20074;-81
2021/08/02 10:28:16;;;;;;;2.47;0.10;;;19.50;95.00;;;;;;3484632;41;20048;-81
2021/08/02 10:30:45;;;;;;;0.95;0.68;;;19.70;95.90;;;;;;3493044;41;20064;-80
2021/08/02 10:33:11;;;;;;;2.08;0.10;;;19.80;95.30;;;;;;3494167;41;20056;-81
2021/08/02 10:35:47;;;;;;;0.40;0.10;;;19.90;95.60;;;;;;3484693;41;20044;-80
2021/08/02 10:38:19;;;;;;;3.30;0.15;;;19.90;95.50;;;;;;3491636;41;20053;-81
2021/08/02 10:40:57;;;;;;;2.75;0.15;;;19.90;95.00;;;;;;3491531;41;20111;-79
2021/08/02 10:43:41;;;;;;;3.42;0.10;;;20.00;93.80;;;;;;3490711;41;20048;-79
2021/08/02 10:46:23;;;;;;;1.35;0.20;;;20.10;94.30;;;;;;3490991;41;20052;-79
2021/08/02 10:48:50;;;;;;;1.58;0.20;;;20.20;92.40;;;;;;3494561;41;20095;-80
2021/08/02 10:51:19;;;;;;;1.42;0.10;;;20.30;95.90;;;;;;3491769;41;20073;-80
2021/08/02 10:54:00;;;;;;;4.30;0.10;;;20.50;95.60;;;;;;3491244;41;20044;-80
2021/08/02 10:56:27;;;;;;;4.97;0.20;;;20.60;93.90;;;;;;3490688;41;20071;-80
2021/08/02 10:58:53;;;;;;;1.73;0.40;;;20.80;95.00;;;;;;3484903;41;20056;-79
2021/08/02 11:01:20;;;;;;;3.13;0.38;;;20.80;94.40;;;;;;3492549;41;20061;-79
2021/08/02 11:03:46;;;;;;;2.63;0.10;;;20.70;93.90;;;;;;3483422;41;20044;-82
2021/08/02 11:06:14;;;;;;;1.83;0.10;;;20.80;94.20;;;;;;3494674;41;20051;-80
2021/08/02 11:08:47;;;;;;;1.38;0.20;;;21.00;94.80;;;;;;3486037;41;20387;-79
2021/08/02 11:11:22;;;;;;;;;;;21.40;93.50;;;;;;3494563;41;20037;-79
2021/08/02 11:13:48;;;;;;;2.33;0.10;;;21.70;91.20;;;;;;3493173;41;20386;-80
2021/08/02 11:16:14;;;;;;;1.88;0.13;;;21.90;93.70;;;;;;3493119;41;20507;-79
2021/08/02 11:18:44;;;;;;;0.65;0.30;;;21.90;94.00;;;;;;3493973;41;20055;-80
2021/08/02 11:21:25;;;;;;;1.33;0.10;;;21.90;92.80;;;;;;3492658;41;20052;-80
2021/08/02 11:23:53;;;;;;;0.95;0.15;;;21.80;88.80;;;;;;3483131;41;20131;-79
2021/08/02 11:26:21;;;;;;;1.45;0.30;;;21.70;93.50;;;;;;3477462;41;20112;-80
2021/08/02 11:28:49;;;;;;;0.85;0.00;;;21.60;92.40;;;;;;3484768;41;20343;-80
2021/08/02 11:31:16;;;;;;;1.20;0.20;;;21.50;92.70;;;;;;3483790;41;20086;-80
2021/08/02 11:33:44;;;;;;;1.98;0.10;;;21.50;92.90;;;;;;3475216;41;20053;-80
2021/08/02 11:36:18;;;;;;;2.17;0.30;;;21.50;92.20;;;;;;3495155;41;20137;-80
2021/08/02 11:38:46;;;;;;;1.90;0.17;;;21.40;90.00;;;;;;3495990;41;20049;-79
2021/08/02 11:41:27;;;;;;;4.55;0.10;;;21.30;92.30;;;;;;3496557;41;20065;-80
2021/08/02 11:43:53;;;;;;;1.70;0.10;;;21.20;91.60;;;;;;3488508;41;20048;-80
2021/08/02 11:46:19;;;;;;;2.22;0.10;;;21.20;92.40;;;;;;3497128;41;20045;-79
2021/08/02 11:48:46;;;;;;;2.90;0.32;;;21.20;92.90;;;;;;3488107;41;20061;-80
2021/08/02 11:51:14;;;;;;;0.60;0.10;;;21.30;93.20;;;;;;3488713;41;20107;-80
2021/08/02 11:53:40;;;;;;;4.18;0.63;;;21.40;93.10;;;;;;3497388;41;20275;-81
2021/08/02 11:56:06;;;;;;;6.28;0.68;;;21.50;92.70;;;;;;3498727;41;20040;-79
2021/08/02 11:58:47;;;;;;;1.48;0.10;;;21.50;92.30;;;;;;3498133;41;20123;-80
2021/08/02 12:01:13;;;;;;;1.08;0.10;;;21.30;90.40;;;;;;3496585;41;20048;-80
2021/08/02 12:03:44;;;;;;;0.55;0.10;;;21.30;92.60;;;;;;3493963;41;20037;-80
2021/08/02 12:06:10;;;;;;;1.08;0.10;;;21.30;92.50;;;;;;3484746;41;20116;-81
2021/08/02 12:08:46;;;;;;;0.55;0.10;;;21.30;92.30;;;;;;3493134;41;20097;-80
2021/08/02 12:11:13;;;;;;;0.50;0.20;;;21.10;92.30;;;;;;3485657;41;20052;-81
2021/08/02 12:13:50;;;;;;;2.58;0.22;;;21.00;92.40;;;;;;3485169;41;20041;-80
2021/08/02 12:16:30;;;;;;;1.77;0.10;;;21.00;92.50;;;;;;3492071;41;20048;-79
2021/08/02 12:19:10;;;;;;;0.50;0.10;;;21.00;91.70;;;;;;3492780;41;20040;-80
2021/08/02 12:21:37;;;;;;;1.35;0.20;;;21.20;91.40;;;;;;3495174;41;20134;-81
2021/08/02 12:24:05;;;;;;;0.63;0.10;;;21.30;93.10;;;;;;3494629;41;20056;-80
2021/08/02 12:26:31;;;;;;;4.03;0.20;;;21.30;92.80;;;;;;3496235;41;20051;-79
2021/08/02 12:28:57;;;;;;;0.55;0.10;;;21.30;92.60;;;;;;3477868;41;20420;-80
2021/08/02 12:31:23;;;;;;;1.13;0.00;;;21.30;92.10;;;;;;3496280;41;20053;-80
2021/08/02 12:33:51;;;;;;;2.28;0.10;;;21.10;92.10;;;;;;3496574;41;20059;-79
2021/08/02 12:36:18;;;;;;;0.30;0.20;;;21.10;92.50;;;;;;3485600;41;20051;-79
2021/08/02 12:38:47;;;;;;;1.67;0.10;;;21.30;92.90;;;;;;3482823;41;20056;-80
2021/08/02 12:41:13;;;;;;;2.20;0.15;;;21.50;92.70;;;;;;3491122;41;20045;-79
2021/08/02 12:43:39;;;;;;;0.20;0.00;;;21.70;92.90;;;;;;3493246;41;20086;-79
2021/08/02 12:46:05;;;;;;;0.60;0.10;;;21.90;92.40;;;;;;3485166;41;20346;-79
2021/08/02 12:48:31;;;;;;;2.95;0.25;;;22.00;92.30;;;;;;3484643;41;20052;-80
2021/08/02 12:50:57;;;;;;;2.33;0.20;;;22.00;91.60;;;;;;3493411;41;20052;-80
2021/08/02 12:53:23;;;;;;;2.15;0.10;;;21.90;91.30;;;;;;3492694;41;20049;-79
2021/08/02 12:55:49;;;;;;;2.45;0.17;;;21.80;92.10;;;;;;3493063;41;20037;-79